Time,TemperatureF,DewpointF,PressureIn,WindDirection,WindDirectionDegrees,WindSpeedMPH,WindSpeedGustMPH,Humidity,HourlyPrecipIn,Conditions,Clouds,dailyrainin,SoftwareType,DateUTC
2013-10-29 00:01:00,26.5,24.0,30.37,ENE,61,0.0,1.0,90,0.00,,,0.08,weatherlink.com 1.10,2013-10-29 04:01:00,
2013-10-29 00:16:00,26.4,24.0,30.37,ENE,61,1.0,3.0,90,0.00,,,0.08,weatherlink.com 1.10,2013-10-29 04:16:00,
2013-10-29 00:31:00,26.0,24.0,30.37,ENE,61,1.0,2.0,90,0.00,,,0.08,weatherlink.com 1.10,2013-10-29 04:31:00,
2013-10-29 00:46:00,25.8,23.0,30.37,ENE,61,0.0,0.0,90,0.00,,,0.08,weatherlink.com 1.10,2013-10-29 04:46:00,
2013-10-29 01:01:00,25.4,23.0,30.37,ENE,61,0.0,1.0,91,0.00,,,0.08,weatherlink.com 1.10,2013-10-29 05:01:00,
2013-10-29 01:16:00,25.3,23.0,30.37,ENE,61,0.0,1.0,91,0.00,,,0.00,weatherlink.com 1.10,2013-10-29 05:16:00,
2013-10-29 01:31:00,25.4,23.0,30.37,ENE,61,0.0,1.0,91,0.00,,,0.00,weatherlink.com 1.10,2013-10-29 05:31:00,
2013-10-29 01:46:00,25.1,23.0,30.37,ENE,61,0.0,0.0,91,0.00,,,0.00,weatherlink.com 1.10,2013-10-29 05:46:00,
2013-10-29 02:01:00,24.3,22.0,30.37,ENE,61,0.0,0.0,90,0.00,,,0.00,weatherlink.com 1.10,2013-10-29 06:01:00,
2013-10-29 02:16:00,24.1,22.0,30.38,ENE,61,0.0,1.0,92,0.00,,,0.00,weatherlink.com 1.10,2013-10-29 06:16:00,
2013-10-29 02:31:00,24.4,23.0,30.38,ENE,61,2.0,3.0,93,0.00,,,0.00,weatherlink.com 1.10,2013-10-29 06:31:00,
2013-10-29 02:46:00,24.6,23.0,30.38,ENE,61,1.0,3.0,92,0.00,,,0.00,weatherlink.com 1.10,2013-10-29 06:46:00,
2013-10-29 03:01:00,24.2,22.0,30.38,ENE,61,0.0,2.0,92,0.00,,,0.00,weatherlink.com 1.10,2013-10-29 07:01:00,
2013-10-29 03:16:00,23.5,22.0,30.39,ENE,61,1.0,1.0,92,0.00,,,0.00,weatherlink.com 1.10,2013-10-29 07:16:00,
2013-10-29 03:31:00,23.6,22.0,30.39,ENE,61,0.0,2.0,93,0.00,,,0.00,weatherlink.com 1.10,2013-10-29 07:31:00,
2013-10-29 03:46:00,23.4,22.0,30.39,ENE,61,2.0,3.0,93,0.00,,,0.00,weatherlink.com 1.10,2013-10-29 07:46:00,
2013-10-29 04:01:00,23.7,22.0,30.39,ENE,63,1.0,4.0,93,0.00,,,0.00,weatherlink.com 1.10,2013-10-29 08:01:00,
2013-10-29 04:16:00,23.0,21.0,30.39,ENE,63,2.0,2.0,92,0.00,,,0.00,weatherlink.com 1.10,2013-10-29 08:16:00,
2013-10-29 04:31:00,22.9,21.0,30.39,ENE,63,0.0,2.0,93,0.00,,,0.00,weatherlink.com 1.10,2013-10-29 08:31:00,
2013-10-29 04:46:00,22.7,21.0,30.39,ENE,63,0.0,2.0,93,0.00,,,0.00,weatherlink.com 1.10,2013-10-29 08:46:00,
2013-10-29 05:01:00,23.0,22.0,30.40,ENE,63,0.0,2.0,94,0.00,,,0.00,weatherlink.com 1.10,2013-10-29 09:01:00,
2013-10-29 05:16:00,22.6,21.0,30.41,ENE,63,2.0,2.0,93,0.00,,,0.00,weatherlink.com 1.10,2013-10-29 09:16:00,
2013-10-29 05:31:00,22.9,21.0,30.41,ENE,63,1.0,3.0,93,0.00,,,0.00,weatherlink.com 1.10,2013-10-29 09:31:00,
2013-10-29 05:46:00,22.7,21.0,30.41,ENE,63,1.0,2.0,93,0.00,,,0.00,weatherlink.com 1.10,2013-10-29 09:46:00,
2013-10-29 06:01:00,22.3,21.0,30.42,ENE,63,1.0,3.0,93,0.00,,,0.00,weatherlink.com 1.10,2013-10-29 10:01:00,
2013-10-29 06:16:00,22.3,21.0,30.42,ENE,63,0.0,2.0,94,0.00,,,0.00,weatherlink.com 1.10,2013-10-29 10:16:00,
2013-10-29 06:31:00,22.2,21.0,30.43,ENE,63,1.0,3.0,93,0.00,,,0.00,weatherlink.com 1.10,2013-10-29 10:31:00,
2013-10-29 06:46:00,22.2,21.0,30.42,ENE,63,1.0,3.0,93,0.00,,,0.00,weatherlink.com 1.10,2013-10-29 10:46:00,
2013-10-29 07:01:00,22.1,20.0,30.42,ENE,63,0.0,3.0,93,0.00,,,0.00,weatherlink.com 1.10,2013-10-29 11:01:00,
2013-10-29 07:16:00,21.6,20.0,30.42,ENE,63,1.0,3.0,93,0.00,,,0.00,weatherlink.com 1.10,2013-10-29 11:16:00,
2013-10-29 07:31:00,21.7,20.0,30.43,ENE,63,1.0,2.0,93,0.00,,,0.00,weatherlink.com 1.10,2013-10-29 11:31:00,
2013-10-29 07:46:00,22.0,20.0,30.44,ENE,63,0.0,1.0,93,0.00,,,0.00,weatherlink.com 1.10,2013-10-29 11:46:00,
2013-10-29 08:01:00,21.5,20.0,30.44,ENE,63,1.0,2.0,93,0.00,,,0.00,weatherlink.com 1.10,2013-10-29 12:01:00,
2013-10-29 08:17:00,22.4,21.0,30.45,ENE,63,1.0,3.0,93,0.00,,,0.00,weatherlink.com 1.10,2013-10-29 12:17:00,
2013-10-29 08:32:00,23.1,21.0,30.45,ENE,63,2.0,3.0,93,0.00,,,0.00,weatherlink.com 1.10,2013-10-29 12:32:00,
2013-10-29 08:47:00,24.6,23.0,30.46,ENE,62,2.0,3.0,92,0.00,,,0.00,weatherlink.com 1.10,2013-10-29 12:47:00,
2013-10-29 09:02:00,25.9,23.0,30.46,ENE,60,1.0,3.0,90,0.00,,,0.00,weatherlink.com 1.10,2013-10-29 13:02:00,
2013-10-29 09:17:00,27.4,24.0,30.46,ENE,61,0.0,3.0,87,0.00,,,0.00,weatherlink.com 1.10,2013-10-29 13:17:00,
2013-10-29 09:32:00,29.3,25.0,30.46,ENE,61,0.0,2.0,85,0.00,,,0.00,weatherlink.com 1.10,2013-10-29 13:32:00,
2013-10-29 09:47:00,33.4,29.0,30.46,ENE,61,0.0,2.0,85,0.00,,,0.00,weatherlink.com 1.10,2013-10-29 13:47:00,
2013-10-29 10:02:00,36.6,29.0,30.46,South,185,2.0,3.0,75,0.00,,,0.00,weatherlink.com 1.10,2013-10-29 14:02:00,
2013-10-29 10:17:00,36.9,30.0,30.45,SSW,208,1.0,4.0,75,0.00,,,0.00,weatherlink.com 1.10,2013-10-29 14:17:00,
2013-10-29 10:32:00,40.1,32.0,30.44,SSE,153,0.0,4.0,72,0.00,,,0.00,weatherlink.com 1.10,2013-10-29 14:32:00,
2013-10-29 10:47:00,42.8,32.0,30.44,SSE,160,3.0,4.0,67,0.00,,,0.00,weatherlink.com 1.10,2013-10-29 14:47:00,
2013-10-29 11:02:00,43.4,31.0,30.44,SE,140,2.0,4.0,61,0.00,,,0.00,weatherlink.com 1.10,2013-10-29 15:02:00,
2013-10-29 11:17:00,41.4,31.0,30.44,ESE,113,0.0,5.0,66,0.00,,,0.00,weatherlink.com 1.10,2013-10-29 15:17:00,
2013-10-29 11:32:00,42.8,31.0,30.44,NE,51,1.0,6.0,63,0.00,,,0.00,weatherlink.com 1.10,2013-10-29 15:32:00,
2013-10-29 11:47:00,44.4,29.0,30.44,SSE,163,0.0,6.0,55,0.00,,,0.00,weatherlink.com 1.10,2013-10-29 15:47:00,
2013-10-29 12:02:00,45.4,28.0,30.44,SW,226,0.0,7.0,51,0.00,,,0.00,weatherlink.com 1.10,2013-10-29 16:02:00,
2013-10-29 12:17:00,44.4,29.0,30.44,South,188,1.0,4.0,55,0.00,,,0.00,weatherlink.com 1.10,2013-10-29 16:17:00,
2013-10-29 12:32:00,43.5,25.0,30.43,ENE,65,2.0,4.0,49,0.00,,,0.00,weatherlink.com 1.10,2013-10-29 16:32:00,
2013-10-29 12:47:00,45.6,30.0,30.42,SSW,201,1.0,4.0,55,0.00,,,0.00,weatherlink.com 1.10,2013-10-29 16:47:00,
2013-10-29 13:02:00,45.5,29.0,30.42,SSW,211,0.0,5.0,53,0.00,,,0.00,weatherlink.com 1.10,2013-10-29 17:02:00,
2013-10-29 13:17:00,47.8,29.0,30.41,South,182,0.0,3.0,49,0.00,,,0.00,weatherlink.com 1.10,2013-10-29 17:17:00,
2013-10-29 13:32:00,49.6,30.0,30.40,SW,221,0.0,5.0,48,0.00,,,0.00,weatherlink.com 1.10,2013-10-29 17:32:00,
2013-10-29 13:47:00,50.2,29.0,30.39,SSW,199,0.0,4.0,45,0.00,,,0.00,weatherlink.com 1.10,2013-10-29 17:47:00,
2013-10-29 14:02:00,50.4,30.0,30.39,SSW,208,1.0,6.0,46,0.00,,,0.00,weatherlink.com 1.10,2013-10-29 18:02:00,
2013-10-29 14:17:00,51.4,30.0,30.39,South,188,3.0,5.0,44,0.00,,,0.00,weatherlink.com 1.10,2013-10-29 18:17:00,
2013-10-29 14:32:00,51.1,30.0,30.39,South,180,0.0,4.0,45,0.00,,,0.00,weatherlink.com 1.10,2013-10-29 18:32:00,
2013-10-29 14:47:00,50.5,30.0,30.39,SW,232,3.0,3.0,45,0.00,,,0.00,weatherlink.com 1.10,2013-10-29 18:47:00,
2013-10-29 15:02:00,50.3,30.0,30.39,South,185,1.0,4.0,45,0.00,,,0.00,weatherlink.com 1.10,2013-10-29 19:02:00,
2013-10-29 15:17:00,51.2,29.0,30.38,South,172,1.0,3.0,42,0.00,,,0.00,weatherlink.com 1.10,2013-10-29 19:17:00,
2013-10-29 15:33:00,50.1,26.0,30.38,SE,142,0.0,2.0,40,0.00,,,0.00,weatherlink.com 1.10,2013-10-29 19:33:00,
2013-10-29 15:48:00,50.0,24.0,30.37,South,179,1.0,1.0,37,0.00,,,0.00,weatherlink.com 1.10,2013-10-29 19:48:00,
2013-10-29 16:03:00,49.6,25.0,30.37,South,184,0.0,2.0,38,0.00,,,0.00,weatherlink.com 1.10,2013-10-29 20:03:00,
2013-10-29 16:18:00,47.4,25.0,30.36,South,184,0.0,1.0,41,0.00,,,0.00,weatherlink.com 1.10,2013-10-29 20:18:00,
2013-10-29 16:33:00,44.2,24.0,30.36,South,184,0.0,1.0,45,0.00,,,0.00,weatherlink.com 1.10,2013-10-29 20:33:00,
2013-10-29 16:48:00,40.8,24.0,30.36,South,184,0.0,0.0,52,0.00,,,0.00,weatherlink.com 1.10,2013-10-29 20:48:00,
2013-10-29 17:03:00,39.1,23.0,30.35,South,184,0.0,0.0,52,0.00,,,0.00,weatherlink.com 1.10,2013-10-29 21:03:00,
2013-10-29 17:18:00,37.7,23.0,30.35,South,184,0.0,0.0,55,0.00,,,0.00,weatherlink.com 1.10,2013-10-29 21:18:00,
2013-10-29 17:33:00,36.1,23.0,30.36,SSE,159,1.0,2.0,60,0.00,,,0.00,weatherlink.com 1.10,2013-10-29 21:33:00,
2013-10-29 17:48:00,34.1,23.0,30.36,SSE,156,0.0,0.0,65,0.00,,,0.00,weatherlink.com 1.10,2013-10-29 21:48:00,
2013-10-29 18:03:00,32.6,24.0,30.38,SSE,156,1.0,1.0,70,0.00,,,0.00,weatherlink.com 1.10,2013-10-29 22:03:00,
2013-10-29 18:18:00,31.6,23.0,30.38,SSE,155,1.0,2.0,71,0.00,,,0.00,weatherlink.com 1.10,2013-10-29 22:18:00,
2013-10-29 18:48:00,30.7,23.0,30.38,ENE,68,2.0,3.0,73,0.00,,,0.00,weatherlink.com 1.10,2013-10-29 22:48:00,
2013-10-29 19:03:00,30.2,23.0,30.38,ENE,66,1.0,3.0,75,0.00,,,0.00,weatherlink.com 1.10,2013-10-29 23:03:00,
2013-10-29 19:18:00,30.2,23.0,30.39,ENE,66,0.0,2.0,75,0.00,,,0.00,weatherlink.com 1.10,2013-10-29 23:18:00,
2013-10-29 19:33:00,29.4,23.0,30.39,ENE,66,0.0,1.0,78,0.00,,,0.00,weatherlink.com 1.10,2013-10-29 23:33:00,
2013-10-29 19:48:00,29.4,23.0,30.39,ENE,66,1.0,2.0,78,0.00,,,0.00,weatherlink.com 1.10,2013-10-29 23:48:00,
2013-10-29 20:03:00,29.1,23.0,30.38,ENE,67,1.0,4.0,79,0.00,,,0.00,weatherlink.com 1.10,2013-10-30 00:03:00,
2013-10-29 20:18:00,29.3,23.0,30.38,NE,54,2.0,3.0,78,0.00,,,0.00,weatherlink.com 1.10,2013-10-30 00:18:00,
2013-10-29 20:33:00,29.1,23.0,30.38,NE,55,2.0,3.0,78,0.00,,,0.00,weatherlink.com 1.10,2013-10-30 00:33:00,
2013-10-29 20:48:00,28.9,23.0,30.37,ENE,57,3.0,3.0,79,0.00,,,0.00,weatherlink.com 1.10,2013-10-30 00:48:00,
2013-10-29 21:03:00,29.0,23.0,30.36,ENE,60,2.0,4.0,79,0.00,,,0.00,weatherlink.com 1.10,2013-10-30 01:03:00,
2013-10-29 21:18:00,29.0,23.0,30.36,ENE,57,2.0,4.0,79,0.00,,,0.00,weatherlink.com 1.10,2013-10-30 01:18:00,
2013-10-29 21:33:00,29.0,23.0,30.35,ENE,58,1.0,3.0,79,0.00,,,0.00,weatherlink.com 1.10,2013-10-30 01:33:00,
2013-10-29 21:48:00,29.3,24.0,30.35,ENE,58,1.0,4.0,79,0.00,,,0.00,weatherlink.com 1.10,2013-10-30 01:48:00,
2013-10-29 22:03:00,28.8,23.0,30.35,ENE,58,2.0,3.0,80,0.00,,,0.00,weatherlink.com 1.10,2013-10-30 02:03:00,
2013-10-29 22:18:00,29.0,24.0,30.35,ENE,58,0.0,2.0,80,0.00,,,0.00,weatherlink.com 1.10,2013-10-30 02:18:00,
2013-10-29 22:33:00,28.8,24.0,30.35,ENE,58,0.0,1.0,82,0.00,,,0.00,weatherlink.com 1.10,2013-10-30 02:33:00,
2013-10-29 22:48:00,28.6,24.0,30.34,ENE,58,0.0,1.0,82,0.00,,,0.00,weatherlink.com 1.10,2013-10-30 02:48:00,
2013-10-29 23:03:00,28.5,24.0,30.34,ENE,58,0.0,2.0,83,0.00,,,0.00,weatherlink.com 1.10,2013-10-30 03:03:00,
2013-10-29 23:18:00,28.3,24.0,30.34,ENE,58,1.0,2.0,84,0.00,,,0.00,weatherlink.com 1.10,2013-10-30 03:18:00,
2013-10-29 23:33:00,28.9,24.0,30.34,ENE,59,2.0,4.0,82,0.00,,,0.00,weatherlink.com 1.10,2013-10-30 03:33:00,
2013-10-29 23:48:00,28.5,24.0,30.33,ENE,59,0.0,2.0,84,0.00,,,0.00,weatherlink.com 1.10,2013-10-30 03:48:00,